createdAt,value
2018-09-29T00:02:18.695Z,2.70
2018-09-29T00:04:47.388Z,2.27
2018-09-29T00:07:16.051Z,4.63
2018-09-29T00:09:44.735Z,5.43
2018-09-29T00:12:13.407Z,4.07
2018-09-29T00:14:42.127Z,7.23
2018-09-29T00:17:10.840Z,6.27
2018-09-29T00:19:39.532Z,1.83
2018-09-29T00:24:43.187Z,3.73
2018-09-29T00:27:11.855Z,1.93
2018-09-29T00:29:40.543Z,1.60
2018-09-29T00:32:09.223Z,3.13
2018-09-29T00:34:37.908Z,1.77
2018-09-29T00:37:06.583Z,3.53
2018-09-29T00:39:35.258Z,3.60
2018-09-29T00:42:03.927Z,3.13
2018-09-29T00:44:32.604Z,0.57
2018-09-29T00:47:01.275Z,5.57
2018-09-29T00:49:29.952Z,2.60
2018-09-29T00:51:58.619Z,1.87
2018-09-29T00:54:27.297Z,1.23
2018-09-29T00:56:55.967Z,0.83
2018-09-29T00:59:24.659Z,2.00
2018-09-29T01:01:53.343Z,1.90
2018-09-29T01:04:22.008Z,4.13
2018-09-29T01:07:01.556Z,2.23
2018-09-29T01:09:30.224Z,6.20
2018-09-29T01:11:58.907Z,2.53
2018-09-29T01:14:27.568Z,4.27
2018-09-29T01:16:56.239Z,0.83
2018-09-29T01:19:24.899Z,1.60
2018-09-29T01:21:53.626Z,5.47
2018-09-29T01:24:22.331Z,0.83
2018-09-29T01:26:51.927Z,2.73
2018-09-29T01:29:20.591Z,0.77
2018-09-29T01:31:49.266Z,3.10
2018-09-29T01:34:18.023Z,1.43
2018-09-29T01:36:46.697Z,2.33
2018-09-29T01:39:15.363Z,3.20
2018-09-29T01:41:44.052Z,2.30
2018-09-29T01:44:12.731Z,3.50
2018-09-29T01:46:41.408Z,3.57
2018-09-29T01:49:10.092Z,6.90
2018-09-29T01:51:38.770Z,0.97
2018-09-29T01:54:07.552Z,6.63
2018-09-29T01:56:36.271Z,2.60
2018-09-29T01:59:04.939Z,2.33
2018-09-29T02:01:33.615Z,0.87
2018-09-29T02:04:02.312Z,0.93
2018-09-29T02:06:30.975Z,1.77
2018-09-29T02:08:59.648Z,6.03
2018-09-29T02:11:28.331Z,3.17
2018-09-29T02:13:57.076Z,4.93
2018-09-29T02:16:25.757Z,1.90
2018-09-29T02:18:54.541Z,3.40
2018-09-29T02:21:23.219Z,1.57
2018-09-29T02:23:52.393Z,2.20
2018-09-29T02:26:21.079Z,3.17
2018-09-29T02:28:49.756Z,1.33
2018-09-29T02:31:18.451Z,3.90
2018-09-29T02:33:47.339Z,1.23
2018-09-29T02:36:16.024Z,3.17
2018-09-29T02:38:44.692Z,2.97
2018-09-29T02:41:13.385Z,2.87
2018-09-29T02:43:42.067Z,1.43
2018-09-29T02:46:10.746Z,5.47
2018-09-29T02:48:39.416Z,1.53
2018-09-29T02:51:08.096Z,3.00
2018-09-29T02:53:36.851Z,3.37
2018-09-29T02:56:05.569Z,1.57
2018-09-29T02:58:34.244Z,4.17
2018-09-29T03:01:02.929Z,1.50
2018-09-29T03:03:31.620Z,1.77
2018-09-29T03:06:00.284Z,1.17
2018-09-29T03:08:29.003Z,3.77
2018-09-29T03:10:57.635Z,10.03
2018-09-29T03:13:26.307Z,2.33
2018-09-29T03:15:55.004Z,0.70
2018-09-29T03:18:23.678Z,1.50
2018-09-29T03:20:52.942Z,0.65
2018-09-29T03:23:21.619Z,1.20
2018-09-29T03:25:50.292Z,0.70
2018-09-29T03:28:18.975Z,4.30
2018-09-29T03:30:47.703Z,4.97
2018-09-29T03:33:16.427Z,1.67
2018-09-29T03:35:45.107Z,1.37
2018-09-29T03:38:13.789Z,4.57
2018-09-29T03:40:42.467Z,2.13
2018-09-29T03:43:11.152Z,1.90
2018-09-29T03:45:39.827Z,4.10
2018-09-29T03:48:08.514Z,2.27
2018-09-29T03:50:37.193Z,6.10
2018-09-29T03:53:05.879Z,0.87
2018-09-29T03:55:34.553Z,5.73
2018-09-29T03:58:03.216Z,4.50
2018-09-29T04:00:31.885Z,3.47
2018-09-29T04:03:00.568Z,0.97
2018-09-29T04:05:29.232Z,8.77
2018-09-29T04:07:57.933Z,1.43
2018-09-29T04:13:01.675Z,2.60
2018-09-29T04:15:30.478Z,4.10
2018-09-29T04:17:59.151Z,2.23
2018-09-29T04:20:27.811Z,3.70
2018-09-29T04:22:56.492Z,5.70
2018-09-29T04:25:25.160Z,0.50
2018-09-29T04:27:53.831Z,4.80
2018-09-29T04:30:23.425Z,0.77
2018-09-29T04:32:52.103Z,2.67
2018-09-29T04:35:20.766Z,2.87
2018-09-29T04:37:49.459Z,3.57
2018-09-29T04:40:18.119Z,2.07
2018-09-29T04:42:46.803Z,2.00
2018-09-29T04:45:15.535Z,3.23
2018-09-29T04:47:44.207Z,1.40
2018-09-29T04:50:12.876Z,4.57
2018-09-29T04:52:41.567Z,6.73
2018-09-29T04:55:10.239Z,3.97
2018-09-29T04:57:38.913Z,5.07
2018-09-29T05:00:07.587Z,1.67
2018-09-29T05:02:36.321Z,4.87
2018-09-29T05:05:05.089Z,2.07
2018-09-29T05:07:33.791Z,3.53
2018-09-29T05:10:02.476Z,5.23
2018-09-29T05:12:31.145Z,3.77
2018-09-29T05:14:59.823Z,4.43
2018-09-29T05:17:29.349Z,2.60
2018-09-29T05:19:58.051Z,4.57
2018-09-29T05:22:26.714Z,1.50
2018-09-29T05:24:55.387Z,6.07
2018-09-29T05:27:24.054Z,4.83
2018-09-29T05:29:52.715Z,9.13
2018-09-29T05:32:21.407Z,1.77
2018-09-29T05:34:50.079Z,2.20
2018-09-29T05:37:18.757Z,8.90
2018-09-29T05:39:47.419Z,5.23
2018-09-29T05:42:16.207Z,3.87
2018-09-29T05:44:44.875Z,3.10
2018-09-29T05:47:13.549Z,1.73
2018-09-29T05:49:42.236Z,3.97
2018-09-29T05:52:10.956Z,3.10
2018-09-29T05:54:39.687Z,5.90
2018-09-29T05:57:08.353Z,4.17
2018-09-29T05:59:37.040Z,2.93
2018-09-29T06:02:05.714Z,6.70
2018-09-29T06:04:34.395Z,8.63
2018-09-29T06:07:03.123Z,5.17
2018-09-29T06:09:31.740Z,3.53
2018-09-29T06:12:00.423Z,5.87
2018-09-29T06:14:29.111Z,8.80
2018-09-29T06:16:57.768Z,6.87
2018-09-29T06:19:26.443Z,6.90
2018-09-29T06:21:55.121Z,5.87
2018-09-29T06:24:24.318Z,4.85
2018-09-29T06:26:52.992Z,3.13
2018-09-29T06:29:21.671Z,7.47
2018-09-29T06:31:50.348Z,6.70
2018-09-29T06:34:19.083Z,4.00
2018-09-29T06:36:47.784Z,4.67
2018-09-29T06:39:16.419Z,8.97
2018-09-29T06:41:45.172Z,4.13
2018-09-29T06:44:13.884Z,6.00
2018-09-29T06:46:42.555Z,5.37
2018-09-29T06:49:11.326Z,5.40
2018-09-29T06:51:40.002Z,5.50
2018-09-29T06:54:08.688Z,7.80
2018-09-29T06:56:37.363Z,8.47
2018-09-29T06:59:06.042Z,7.97
2018-09-29T07:01:34.721Z,6.20
2018-09-29T07:04:03.387Z,5.47
2018-09-29T07:06:32.064Z,6.30
2018-09-29T07:09:00.744Z,6.97
2018-09-29T07:11:29.481Z,3.90
2018-09-29T07:13:58.175Z,12.30
2018-09-29T07:16:26.852Z,6.20
2018-09-29T07:18:55.529Z,5.83
2018-09-29T07:21:24.763Z,9.53
2018-09-29T07:23:53.466Z,7.13
2018-09-29T07:26:22.139Z,8.70
2018-09-29T07:28:50.807Z,12.50
2018-09-29T07:31:19.569Z,5.80
2018-09-29T07:33:48.180Z,5.47
2018-09-29T07:36:16.873Z,5.17
2018-09-29T07:38:45.545Z,5.63
2018-09-29T07:41:14.376Z,8.27
2018-09-29T07:43:43.050Z,10.67
2018-09-29T07:46:11.739Z,4.87
2018-09-29T07:48:40.411Z,13.57
2018-09-29T07:51:09.096Z,11.60
2018-09-29T07:53:37.767Z,9.60
2018-09-29T07:56:06.797Z,6.07
2018-09-29T07:58:35.470Z,7.57
2018-09-29T08:01:04.143Z,4.10
2018-09-29T08:03:32.862Z,5.33
2018-09-29T08:06:01.539Z,7.57
2018-09-29T08:08:30.203Z,4.57
2018-09-29T08:10:58.886Z,4.10
2018-09-29T08:13:27.556Z,5.93
2018-09-29T08:15:56.244Z,3.90
2018-09-29T08:18:25.144Z,6.17
2018-09-29T08:20:53.829Z,5.23
2018-09-29T08:23:22.705Z,7.93
2018-09-29T08:25:51.383Z,10.43
2018-09-29T08:28:20.063Z,9.90
2018-09-29T08:30:48.744Z,16.47
2018-09-29T08:33:17.422Z,6.17
2018-09-29T08:35:46.092Z,8.00
2018-09-29T08:38:14.771Z,12.57
2018-09-29T08:40:43.456Z,5.30
2018-09-29T08:43:12.119Z,8.53
2018-09-29T08:45:40.803Z,5.43
2018-09-29T08:48:09.471Z,12.97
2018-09-29T08:50:38.157Z,8.28
2018-09-29T08:53:06.864Z,7.90
2018-09-29T08:55:35.503Z,7.13
2018-09-29T08:58:04.171Z,12.17
2018-09-29T09:00:32.857Z,9.53
2018-09-29T09:03:01.525Z,4.80
2018-09-29T09:05:30.295Z,12.80
2018-09-29T09:07:58.962Z,3.43
2018-09-29T09:10:27.648Z,6.70
2018-09-29T09:12:56.318Z,7.33
2018-09-29T09:15:26.142Z,9.47
2018-09-29T09:17:55.827Z,9.20
2018-09-29T09:20:24.507Z,6.57
2018-09-29T09:22:53.202Z,8.53
2018-09-29T09:25:21.993Z,4.00
2018-09-29T09:27:50.678Z,6.60
2018-09-29T09:30:19.395Z,6.40
2018-09-29T09:32:48.053Z,7.43
2018-09-29T09:35:16.711Z,6.70
2018-09-29T09:37:45.404Z,6.67
2018-09-29T09:40:14.123Z,4.60
2018-09-29T09:42:42.859Z,5.80
2018-09-29T09:45:11.580Z,3.90
2018-09-29T09:47:40.302Z,2.83
2018-09-29T09:50:09.028Z,7.47
2018-09-29T09:52:37.761Z,7.73
2018-09-29T09:55:06.456Z,3.40
2018-09-29T09:57:35.239Z,5.60
2018-09-29T10:00:04.162Z,4.33
2018-09-29T10:02:38.223Z,3.50
2018-09-29T10:05:07.087Z,2.47
2018-09-29T10:07:35.769Z,2.43
2018-09-29T10:10:04.562Z,5.17
2018-09-29T10:12:33.236Z,4.50
2018-09-29T10:15:01.905Z,1.90
2018-09-29T10:17:30.627Z,6.70
2018-09-29T10:19:59.276Z,2.40
2018-09-29T10:22:27.958Z,3.80
2018-09-29T10:24:56.618Z,3.73
2018-09-29T10:27:26.223Z,3.37
2018-09-29T10:29:54.906Z,1.23
2018-09-29T10:32:23.587Z,2.23
2018-09-29T10:34:52.267Z,7.20
2018-09-29T10:37:20.955Z,2.77
2018-09-29T10:39:49.635Z,4.83
2018-09-29T10:42:18.424Z,5.50
2018-09-29T10:44:47.098Z,4.20
2018-09-29T10:47:16.167Z,5.90
2018-09-29T10:49:44.913Z,4.03
2018-09-29T10:52:13.590Z,2.23
2018-09-29T10:54:42.250Z,1.63
2018-09-29T10:57:13.651Z,3.53
2018-09-29T10:59:42.335Z,0.57
2018-09-29T11:02:11.029Z,4.57
2018-09-29T11:04:39.948Z,2.73
2018-09-29T11:07:08.626Z,4.87
2018-09-29T11:09:37.291Z,3.53
2018-09-29T11:12:05.974Z,6.90
2018-09-29T11:14:34.643Z,3.47
2018-09-29T11:17:03.315Z,1.77
2018-09-29T11:19:31.992Z,1.43
2018-09-29T11:22:00.675Z,2.00
2018-09-29T11:24:29.351Z,4.10
2018-09-29T11:26:58.041Z,5.17
2018-09-29T11:29:26.839Z,2.07
2018-09-29T11:31:55.767Z,3.57
2018-09-29T11:34:24.438Z,9.13
2018-09-29T11:36:53.132Z,2.33
2018-09-29T11:39:21.915Z,3.30
2018-09-29T11:41:50.487Z,4.93
2018-09-29T11:44:19.155Z,4.97
2018-09-29T11:46:47.831Z,4.63
2018-09-29T11:49:16.525Z,4.27
2018-09-29T11:51:45.202Z,4.93
2018-09-29T11:54:13.952Z,3.77
2018-09-29T11:56:42.644Z,4.40
2018-09-29T11:59:11.433Z,4.13
2018-09-29T12:01:40.157Z,4.20
2018-09-29T12:04:08.797Z,3.20
2018-09-29T12:06:37.589Z,3.27
2018-09-29T12:09:09.007Z,2.20
2018-09-29T12:11:37.783Z,3.43
2018-09-29T12:14:06.631Z,4.13
2018-09-29T12:16:35.360Z,2.30
2018-09-29T12:19:04.062Z,1.40
2018-09-29T12:21:32.738Z,2.27
2018-09-29T12:24:01.440Z,6.03
2018-09-29T12:26:30.154Z,2.63
2018-09-29T12:28:58.831Z,3.13
2018-09-29T12:31:28.411Z,5.07
2018-09-29T12:33:57.124Z,2.17
2018-09-29T12:36:25.805Z,1.20
2018-09-29T12:38:54.550Z,4.27
2018-09-29T12:41:23.234Z,5.80
2018-09-29T12:43:51.916Z,3.23
2018-09-29T12:46:20.583Z,3.90
2018-09-29T12:48:49.268Z,2.73
2018-09-29T12:51:17.941Z,2.43
2018-09-29T12:53:46.623Z,10.43
2018-09-29T12:56:15.299Z,3.00
2018-09-29T12:58:44.067Z,3.20
2018-09-29T13:01:12.698Z,3.30
2018-09-29T13:03:42.195Z,4.00
2018-09-29T13:06:10.866Z,5.47
2018-09-29T13:08:39.559Z,13.03
2018-09-29T13:11:08.328Z,7.50
2018-09-29T13:13:36.979Z,4.40
2018-09-29T13:16:05.716Z,3.57
2018-09-29T13:18:34.444Z,1.90
2018-09-29T13:21:03.164Z,2.13
2018-09-29T13:23:31.891Z,2.30
2018-09-29T13:26:00.702Z,12.17
2018-09-29T13:28:29.387Z,6.03
2018-09-29T13:30:58.755Z,6.97
2018-09-29T13:33:27.462Z,24.73
2018-09-29T13:35:56.147Z,16.23
2018-09-29T13:38:24.834Z,5.47
2018-09-29T13:40:53.549Z,2.57
2018-09-29T13:43:22.324Z,2.30
2018-09-29T13:45:51.213Z,2.70
2018-09-29T13:48:19.850Z,6.17
2018-09-29T13:50:48.533Z,4.97
2018-09-29T13:53:17.239Z,5.00
2018-09-29T13:55:45.921Z,1.53
2018-09-29T13:58:14.603Z,2.67
2018-09-29T14:00:43.289Z,4.13
2018-09-29T14:03:11.963Z,5.07
2018-09-29T14:05:40.642Z,1.70
2018-09-29T14:08:09.336Z,2.00
2018-09-29T14:10:38.024Z,3.93
2018-09-29T14:13:06.703Z,2.43
2018-09-29T14:15:35.604Z,1.77
2018-09-29T14:18:04.391Z,3.90
2018-09-29T14:20:33.055Z,5.63
2018-09-29T14:23:01.734Z,2.63
2018-09-29T14:25:30.450Z,1.20
2018-09-29T14:27:59.219Z,5.37
2018-09-29T14:30:27.887Z,3.50
2018-09-29T14:32:56.567Z,3.10
2018-09-29T14:35:25.246Z,3.67
2018-09-29T14:37:54.000Z,5.63
2018-09-29T14:40:22.668Z,3.10
2018-09-29T14:42:51.363Z,4.97
2018-09-29T14:45:20.065Z,3.07
2018-09-29T14:47:48.719Z,8.60
2018-09-29T14:50:17.412Z,13.07
2018-09-29T14:52:46.082Z,23.30
2018-09-29T14:55:14.759Z,9.83
2018-09-29T14:57:43.439Z,1.37
2018-09-29T15:00:12.142Z,3.50
2018-09-29T15:02:40.819Z,5.80
2018-09-29T15:05:09.509Z,4.37
2018-09-29T15:07:38.190Z,2.00
2018-09-29T15:10:06.936Z,1.80
2018-09-29T15:12:35.545Z,4.03
2018-09-29T15:15:04.377Z,1.93
2018-09-29T15:17:33.099Z,3.27
2018-09-29T15:20:01.779Z,4.67
2018-09-29T15:22:30.469Z,3.80
2018-09-29T15:24:59.607Z,7.17
2018-09-29T15:27:28.292Z,1.97
2018-09-29T15:29:56.976Z,4.17
2018-09-29T15:32:25.663Z,3.93
2018-09-29T15:34:54.356Z,4.97
2018-09-29T15:37:23.044Z,1.53
2018-09-29T15:39:51.782Z,2.87
2018-09-29T15:42:20.547Z,2.20
2018-09-29T15:44:49.220Z,4.50
2018-09-29T15:47:17.899Z,3.73
2018-09-29T15:49:46.597Z,5.30
2018-09-29T15:52:15.265Z,2.67
2018-09-29T15:54:43.944Z,4.33
2018-09-29T15:57:12.624Z,2.77
2018-09-29T15:59:41.411Z,3.77
2018-09-29T16:02:10.120Z,7.47
2018-09-29T16:04:38.791Z,3.00
2018-09-29T16:07:07.481Z,3.60
2018-09-29T16:09:36.216Z,2.07
2018-09-29T16:12:04.832Z,4.27
2018-09-29T16:14:33.510Z,1.57
2018-09-29T16:17:02.191Z,5.77
2018-09-29T16:19:30.870Z,4.63
2018-09-29T16:22:00.101Z,2.70
2018-09-29T16:24:30.000Z,1.63
2018-09-29T16:26:58.680Z,0.70
2018-09-29T16:29:27.355Z,0.77
2018-09-29T16:31:56.095Z,2.13
2018-09-29T16:34:24.740Z,1.23
2018-09-29T16:36:53.456Z,1.57
2018-09-29T16:39:22.832Z,2.83
2018-09-29T16:41:51.506Z,0.73
2018-09-29T16:44:20.182Z,2.73
2018-09-29T16:46:48.859Z,2.10
2018-09-29T16:49:17.540Z,1.93
2018-09-29T16:51:46.215Z,2.47
2018-09-29T16:54:14.903Z,2.10
2018-09-29T16:56:43.643Z,1.90
2018-09-29T16:59:12.329Z,2.83
2018-09-29T17:01:40.991Z,4.73
2018-09-29T17:04:09.719Z,1.98
2018-09-29T17:06:38.356Z,0.93
2018-09-29T17:09:09.379Z,1.77
2018-09-29T17:11:38.055Z,1.10
2018-09-29T17:14:06.762Z,10.20
2018-09-29T17:16:36.139Z,15.47
2018-09-29T17:19:05.159Z,8.27
2018-09-29T17:21:33.883Z,6.77
2018-09-29T17:24:02.507Z,14.93
2018-09-29T17:26:31.195Z,7.97
2018-09-29T17:29:00.472Z,9.43
2018-09-29T17:31:29.139Z,7.30
2018-09-29T17:33:57.824Z,11.40
2018-09-29T17:36:26.503Z,11.73
2018-09-29T17:38:55.264Z,8.70
2018-09-29T17:41:23.999Z,10.43
2018-09-29T17:43:52.672Z,10.70
2018-09-29T17:46:21.415Z,8.93
2018-09-29T17:48:50.088Z,12.40
2018-09-29T17:51:18.772Z,11.00
2018-09-29T17:53:47.452Z,9.97
2018-09-29T17:56:16.228Z,12.10
2018-09-29T17:58:44.885Z,23.63
2018-09-29T18:01:13.564Z,13.60
2018-09-29T18:03:42.240Z,16.33
2018-09-29T18:06:11.004Z,11.73
2018-09-29T18:08:39.756Z,58.07
2018-09-29T18:11:08.448Z,45.30
2018-09-29T18:13:37.307Z,36.33
2018-09-29T18:16:06.043Z,35.77
2018-09-29T18:18:34.747Z,47.97
2018-09-29T18:21:03.522Z,40.77
2018-09-29T18:23:32.192Z,16.03
2018-09-29T18:26:01.183Z,22.13
2018-09-29T18:28:29.855Z,8.70
2018-09-29T18:30:58.537Z,9.53
2018-09-29T18:33:27.207Z,17.97
2018-09-29T18:35:55.933Z,35.40
2018-09-29T18:38:24.575Z,34.37
2018-09-29T18:40:53.367Z,26.33
2018-09-29T18:43:22.051Z,37.10
2018-09-29T18:45:50.731Z,41.27
2018-09-29T18:48:19.408Z,32.87
2018-09-29T18:50:48.100Z,17.87
2018-09-29T18:53:16.759Z,12.93
2018-09-29T18:55:45.452Z,10.43
2018-09-29T18:58:14.327Z,11.08
2018-09-29T19:00:43.008Z,10.20
2018-09-29T19:03:11.675Z,7.73
2018-09-29T19:05:40.360Z,9.80
2018-09-29T19:08:10.060Z,9.00
2018-09-29T19:10:38.756Z,13.03
2018-09-29T19:13:07.431Z,10.53
2018-09-29T19:15:36.108Z,10.47
2018-09-29T19:18:04.893Z,12.57
2018-09-29T19:20:33.655Z,8.00
2018-09-29T19:23:02.331Z,12.30
2018-09-29T19:25:31.629Z,11.50
2018-09-29T19:28:00.309Z,15.00
2018-09-29T19:30:28.979Z,15.50
2018-09-29T19:32:57.659Z,13.90
2018-09-29T19:35:26.407Z,12.43
2018-09-29T19:37:55.079Z,11.57
2018-09-29T19:40:23.752Z,8.97
2018-09-29T19:42:52.428Z,9.00
2018-09-29T19:45:21.156Z,12.10
2018-09-29T19:47:49.768Z,8.97
2018-09-29T19:50:18.477Z,9.90
2018-09-29T19:52:47.135Z,14.50
2018-09-29T19:55:15.803Z,11.73
2018-09-29T19:57:44.559Z,8.63
2018-09-29T20:00:13.248Z,12.97
2018-09-29T20:02:41.925Z,7.73
2018-09-29T20:05:10.587Z,10.77
2018-09-29T20:07:39.268Z,3.23
2018-09-29T20:10:08.009Z,6.50
2018-09-29T20:12:36.613Z,5.90
2018-09-29T20:15:05.355Z,5.80
2018-09-29T20:17:34.040Z,7.23
2018-09-29T20:20:02.716Z,7.10
2018-09-29T20:22:32.126Z,4.22
2018-09-29T20:25:00.784Z,4.37
2018-09-29T20:27:29.456Z,7.30
2018-09-29T20:29:58.123Z,6.90
2018-09-29T20:32:26.853Z,5.33
2018-09-29T20:34:55.563Z,4.47
2018-09-29T20:37:24.306Z,8.27
2018-09-29T20:39:52.996Z,9.50
2018-09-29T20:42:21.718Z,6.80
2018-09-29T20:44:50.383Z,3.67
2018-09-29T20:47:19.088Z,6.10
2018-09-29T20:49:47.752Z,6.90
2018-09-29T20:52:16.435Z,6.83
2018-09-29T20:54:45.142Z,11.10
2018-09-29T20:57:13.832Z,11.85
2018-09-29T20:59:42.583Z,13.93
2018-09-29T21:02:11.272Z,9.17
2018-09-29T21:04:40.011Z,15.90
2018-09-29T21:07:08.748Z,6.87
2018-09-29T21:09:37.414Z,9.03
2018-09-29T21:12:06.096Z,5.37
2018-09-29T21:14:34.759Z,5.47
2018-09-29T21:17:03.675Z,3.33
2018-09-29T21:19:32.430Z,4.15
2018-09-29T21:22:01.104Z,3.43
2018-09-29T21:24:29.775Z,3.03
2018-09-29T21:26:58.487Z,3.10
2018-09-29T21:29:27.152Z,3.47
2018-09-29T21:31:55.826Z,5.73
2018-09-29T21:34:24.527Z,6.30
2018-09-29T21:36:53.212Z,8.97
2018-09-29T21:39:21.959Z,3.93
2018-09-29T21:41:50.646Z,7.20
2018-09-29T21:44:19.307Z,4.07
2018-09-29T21:46:48.015Z,5.93
2018-09-29T21:49:16.683Z,6.00
2018-09-29T21:51:45.351Z,7.83
2018-09-29T21:54:14.022Z,5.80
2018-09-29T21:56:42.699Z,4.73
2018-09-29T21:59:11.371Z,4.30
2018-09-29T22:01:40.048Z,5.60
2018-09-29T22:06:36.748Z,5.73
2018-09-29T22:09:07.195Z,6.97
2018-09-29T22:11:36.000Z,9.47
2018-09-29T22:14:04.678Z,6.30
2018-09-29T22:16:33.362Z,8.73
2018-09-29T22:19:02.927Z,7.77
2018-09-29T22:21:31.603Z,8.60
2018-09-29T22:24:00.268Z,11.30
2018-09-29T22:26:28.944Z,10.67
2018-09-29T22:28:57.622Z,7.27
2018-09-29T22:31:26.284Z,10.17
2018-09-29T22:33:54.992Z,12.83
2018-09-29T22:36:23.664Z,10.87
2018-09-29T22:38:52.342Z,8.17
2018-09-29T22:41:21.022Z,11.53
2018-09-29T22:43:49.698Z,10.13
2018-09-29T22:46:18.375Z,10.43
2018-09-29T22:48:47.095Z,9.77
2018-09-29T22:51:15.792Z,7.37
2018-09-29T22:53:44.483Z,9.63
2018-09-29T22:56:13.199Z,10.50
2018-09-29T22:58:41.876Z,8.00
2018-09-29T23:01:10.548Z,9.83
2018-09-29T23:03:39.236Z,9.30
2018-09-29T23:06:07.911Z,9.03
2018-09-29T23:08:36.659Z,4.67
2018-09-29T23:11:05.317Z,6.47
2018-09-29T23:13:33.980Z,7.60
2018-09-29T23:16:03.366Z,5.05
2018-09-29T23:18:32.043Z,4.97
2018-09-29T23:21:00.717Z,8.43
2018-09-29T23:23:29.427Z,8.37
2018-09-29T23:25:58.095Z,7.40
2018-09-29T23:28:26.809Z,5.53
2018-09-29T23:30:55.483Z,7.47
2018-09-29T23:33:24.173Z,6.53
2018-09-29T23:35:52.845Z,6.97
2018-09-29T23:38:21.528Z,5.33
2018-09-29T23:40:50.195Z,4.43
2018-09-29T23:43:18.875Z,5.73
2018-09-29T23:45:47.547Z,5.28
2018-09-29T23:48:16.229Z,3.00
2018-09-29T23:50:44.894Z,4.23
2018-09-29T23:53:13.581Z,6.78
2018-09-29T23:55:42.253Z,3.93
2018-09-29T23:58:11.147Z,3.13
